Latest Weather Observations for Lihou Reef Lighthouse

IDQ60801

Issued at 9:35 pm EST Tuesday 21 October 2014 (issued every 30 minutes, with the page automatically refreshed every 10 minutes)

About weather observations | Map of weather stations | Latest weather observations for QLD | Other Formats
Station Details ID: 200880 Name: LIHOU REEF LIGHTHOUSE Lat: -17.13 Lon: 152.15 Height: 0.0 m
Data from the previous 72 hours. | See also: Recent months for locations in Queensland
Date/Time
EST
Temp
°C
App
Temp
°C
Dew
Point
Rel
Hum
%
Delta-T
°C
Wind Press
QNH
hPa
Press
MSL
hPa
Rain
since 9 am
mm
Dir
 
Spd
km/h
Gust
km/h
Spd
kts
Gust
kts
21/09:30pm 24.4 - - - - SE 43 48 23 26 1018.6 1018.5 -
21/09:00pm 24.6 - - - - SE 43 48 23 26 1018.4 1018.3 -
21/08:30pm 24.5 - - - - SE 41 50 22 27 1018.1 1018.0 -
21/08:00pm 24.4 - - - - SE 39 48 21 26 1017.8 1017.7 -
21/07:30pm 24.4 - - - - SE 41 46 22 25 1017.7 1017.6 -
21/07:00pm 24.6 - - - - SE 43 48 23 26 1017.3 1017.2 -
21/06:30pm 24.4 - - - - SE 43 48 23 26 1017.1 1017.0 -
21/06:00pm 24.9 - - - - SE 41 52 22 28 1016.7 1016.6 -
21/05:30pm 24.6 - - - - SE 41 48 22 26 1016.5 1016.4 -
21/05:00pm 24.8 - - - - SE 41 50 22 27 1016.1 1016.0 -
21/04:30pm 24.4 - - - - SE 41 50 22 27 1015.9 1015.8 -
21/04:00pm 24.8 - - - - SE 39 50 21 27 1015.8 1015.7 -
21/03:30pm 24.8 - - - - SE 41 48 22 26 1015.7 1015.6 -
21/03:00pm 24.3 - - - - SE 43 50 23 27 1015.7 1015.6 -
21/02:30pm 24.5 - - - - SE 43 52 23 28 1015.8 1015.7 -
21/02:00pm 24.3 - - - - SSE 41 48 22 26 1016.0 1015.9 -
21/01:30pm 24.1 - - - - SE 41 46 22 25 1016.2 1016.1 -
21/01:00pm 24.6 - - - - SE 41 46 22 25 1016.7 1016.6 -
21/12:30pm 24.7 - - - - SE 39 44 21 24 1017.1 1017.0 -
21/12:00pm 24.9 - - - - SE 37 46 20 25 1017.4 1017.3 -
21/11:30am 24.7 - - - - SE 41 50 22 27 1017.6 1017.5 -
21/11:00am 25.0 - - - - SE 41 48 22 26 1017.8 1017.7 -
21/10:30am 24.8 - - - - SE 41 48 22 26 1017.9 1017.8 -
21/10:00am 24.7 - - - - SE 41 48 22 26 1017.9 1017.8 -
21/09:30am 24.8 - - - - SE 39 44 21 24 1018.2 1018.1 -
21/09:00am 24.8 - - - - SE 39 48 21 26 1018.1 1018.0 -
21/08:30am 24.9 - - - - SE 39 44 21 24 1018.0 1017.9 -
21/08:00am 24.7 - - - - SE 41 46 22 25 1017.7 1017.6 -
21/07:30am 24.6 - - - - SE 41 48 22 26 1017.5 1017.4 -
21/07:00am 24.6 - - - - SE 41 48 22 26 1017.1 1017.0 -
21/06:30am 24.8 - - - - SE 43 50 23 27 1016.8 1016.7 -
21/06:00am 24.3 - - - - SE 43 52 23 28 1016.2 1016.1 -
21/05:30am 24.1 - - - - SE 43 52 23 28 1015.9 1015.8 -
21/05:00am 24.5 - - - - SE 43 52 23 28 1015.7 1015.6 -
21/04:30am 24.5 - - - - SE 41 48 22 26 1015.6 1015.5 -
21/04:00am 24.3 - - - - SE 43 50 23 27 1015.5 1015.4 -
21/03:30am 24.3 - - - - SE 41 48 22 26 1015.5 1015.4 -
21/03:00am 23.1 - - - - SE 37 48 20 26 1015.5 1015.4 -
21/02:30am 24.0 - - - - SE 41 48 22 26 1015.6 1015.5 -
21/02:00am 24.1 - - - - SE 39 44 21 24 1015.7 1015.6 -
21/01:30am 24.3 - - - - SE 39 46 21 25 1016.0 1015.9 -
21/01:00am 24.3 - - - - SE 43 50 23 27 1016.3 1016.2 -
21/12:30am 24.5 - - - - SE 43 48 23 26 1016.5 1016.4 -
21/12:00am 24.4 - - - - SE 41 46 22 25 1016.8 1016.7 -
 
Date/Time
EST
Temp
°C
App
Temp
°C
Dew
Point
Rel
Hum
%
Delta-T
°C
Wind Press
QNH
hPa
Press
MSL
hPa
Rain
since 9 am
mm
Dir
 
Spd
km/h
Gust
km/h
Spd
kts
Gust
kts
20/11:30pm 24.4 - - - - SE 41 50 22 27 1017.0 1016.9 -
20/11:00pm 24.4 - - - - SE 41 48 22 26 1017.2 1017.1 -
20/10:30pm 24.6 - - - - SE 41 48 22 26 1017.2 1017.1 -
20/10:00pm 24.7 - - - - SE 39 48 21 26 1017.4 1017.3 -
20/09:30pm 24.9 - - - - SE 37 44 20 24 1017.6 1017.5 -
20/09:00pm 24.6 - - - - SE 39 46 21 25 1017.4 1017.3 -
20/08:30pm 24.7 - - - - SE 39 44 21 24 1017.2 1017.1 -
20/08:00pm 24.6 - - - - SE 39 44 21 24 1016.7 1016.6 -
20/07:30pm 24.6 - - - - SE 39 44 21 24 1016.6 1016.5 -
20/07:00pm 24.7 - - - - SE 41 44 22 24 1016.5 1016.4 -
20/06:30pm 24.7 - - - - ESE 39 46 21 25 1016.2 1016.1 -
20/06:00pm 24.4 - - - - SE 43 50 23 27 1015.9 1015.8 -
20/05:30pm 24.6 - - - - SE 41 48 22 26 1015.8 1015.7 -
20/05:00pm 25.1 - - - - SE 39 44 21 24 1015.7 1015.6 -
20/04:30pm 25.0 - - - - SE 39 46 21 25 1015.4 1015.3 -
20/04:00pm 24.9 - - - - SE 35 43 19 23 1015.6 1015.5 -
20/03:30pm 25.0 - - - - SE 37 43 20 23 1015.6 1015.5 -
20/03:00pm 25.0 - - - - SE 37 44 20 24 1015.5 1015.4 -
20/02:30pm 24.7 - - - - SE 37 44 20 24 1015.5 1015.4 -
20/02:00pm 24.7 - - - - SE 41 48 22 26 1015.5 1015.4 -
20/01:30pm 24.6 - - - - SE 39 46 21 25 1015.9 1015.8 -
20/01:00pm 24.6 - - - - SE 39 44 21 24 1016.1 1016.0 -
20/12:30pm 24.6 - - - - SE 43 50 23 27 1016.1 1016.0 -
20/12:00pm 24.6 - - - - SE 41 50 22 27 1016.6 1016.5 -
20/11:30am 24.8 - - - - SE 43 52 23 28 1016.8 1016.7 -
20/11:00am 24.8 - - - - SE 41 48 22 26 1017.2 1017.1 -
20/10:30am 24.9 - - - - SE 41 48 22 26 1017.8 1017.7 -
20/10:00am 25.0 - - - - SE 43 50 23 27 1017.8 1017.7 -
20/09:30am 24.8 - - - - SE 43 50 23 27 1018.0 1017.9 -
20/09:00am 24.9 - - - - SE 44 50 24 27 1017.8 1017.7 -
20/08:30am 24.6 - - - - SE 43 52 23 28 1018.1 1018.0 -
20/08:00am 24.9 - - - - SE 41 46 22 25 1018.3 1018.2 -
20/07:30am 24.8 - - - - SE 43 50 23 27 1017.8 1017.7 -
20/07:00am 24.2 - - - - SE 41 48 22 26 1017.6 1017.5 -
20/06:30am 24.7 - - - - SE 39 46 21 25 1017.3 1017.2 -
20/06:00am 24.4 - - - - SE 41 48 22 26 1016.8 1016.7 -
20/05:30am 24.1 - - - - SE 44 54 24 29 1016.0 1015.9 -
20/05:00am 24.7 - - - - SE 43 48 23 26 1016.2 1016.1 -
20/04:30am 24.5 - - - - SE 43 50 23 27 1015.9 1015.8 -
20/04:00am 24.4 - - - - SE 43 50 23 27 1015.6 1015.5 -
20/03:30am 24.6 - - - - SE 41 46 22 25 1015.8 1015.7 -
20/03:00am 24.5 - - - - SE 41 48 22 26 1015.7 1015.6 -
20/02:30am 24.5 - - - - SE 43 50 23 27 1015.8 1015.7 -
20/02:00am 24.6 - - - - SE 41 48 22 26 1015.8 1015.7 -
20/01:30am 24.7 - - - - SE 43 52 23 28 1015.7 1015.6 -
20/01:00am 24.4 - - - - SE 46 56 25 30 1015.7 1015.6 -
20/12:30am 24.6 - - - - SE 48 56 26 30 1015.9 1015.8 -
20/12:00am 24.4 - - - - SE 48 57 26 31 1016.2 1016.1 -
 
Date/Time
EST
Temp
°C
App
Temp
°C
Dew
Point
Rel
Hum
%
Delta-T
°C
Wind Press
QNH
hPa
Press
MSL
hPa
Rain
since 9 am
mm
Dir
 
Spd
km/h
Gust
km/h
Spd
kts
Gust
kts
19/11:30pm 24.5 - - - - SE 48 57 26 31 1016.9 1016.8 -
19/11:00pm 24.4 - - - - SE 46 54 25 29 1017.5 1017.4 -
19/10:30pm 23.2 - - - - SE 43 54 23 29 1018.1 1018.0 -
19/10:17pm 24.2 - - - - SE 37 57 20 31 1018.2 1018.1 -
19/10:00pm 23.3 - - - - SE 50 63 27 34 1018.1 1018.0 -
19/09:30pm 24.6 - - - - SE 46 56 25 30 1017.9 1017.8 -
19/09:00pm 24.5 - - - - SE 43 52 23 28 1017.8 1017.7 -
19/08:30pm 24.8 - - - - SE 46 54 25 29 1017.5 1017.4 -
19/08:00pm 24.9 - - - - SE 46 54 25 29 1017.2 1017.1 -
19/07:30pm 24.9 - - - - SE 44 54 24 29 1017.0 1016.9 -
19/07:00pm 24.7 - - - - SE 46 56 25 30 1016.8 1016.7 -
19/06:30pm 24.5 - - - - SE 44 56 24 30 1016.7 1016.6 -
19/06:00pm 23.8 - - - - SE 43 59 23 32 1016.6 1016.5 -
19/05:30pm 25.0 - - - - SE 43 52 23 28 1016.4 1016.3 -
19/05:00pm 25.1 - - - - SE 43 52 23 28 1015.9 1015.8 -
19/04:30pm 24.8 - - - - SE 44 52 24 28 1015.5 1015.4 -
19/04:00pm 24.7 - - - - SE 43 52 23 28 1015.2 1015.1 -
19/03:30pm 24.7 - - - - SE 46 54 25 29 1015.0 1014.9 -
19/03:00pm 24.5 - - - - SE 44 52 24 28 1015.0 1014.9 -
19/02:30pm 24.4 - - - - SE 44 54 24 29 1014.9 1014.8 -
19/02:00pm 25.0 - - - - SE 43 50 23 27 1015.4 1015.3 -
19/01:30pm 24.7 - - - - SE 46 54 25 29 1015.4 1015.3 -
19/01:00pm 25.0 - - - - SE 44 52 24 28 1015.8 1015.7 -
19/12:30pm 24.8 - - - - SE 44 56 24 30 1016.0 1015.9 -
19/12:00pm 25.1 - - - - SE 44 52 24 28 1016.5 1016.4 -
19/11:30am 24.8 - - - - SE 41 50 22 27 1016.8 1016.7 -
19/11:00am 24.8 - - - - SE 44 54 24 29 1017.3 1017.2 -
19/10:30am 24.9 - - - - SE 41 48 22 26 1017.5 1017.4 -
19/10:00am 24.6 - - - - SE 43 48 23 26 1017.7 1017.6 -
19/09:30am 24.7 - - - - SE 43 52 23 28 1018.0 1017.9 -
19/09:00am 24.9 - - - - SE 41 50 22 27 1017.9 1017.8 -
19/08:30am 24.7 - - - - SE 44 52 24 28 1017.7 1017.6 -
19/08:00am 24.8 - - - - SE 41 48 22 26 1017.8 1017.7 -
19/07:30am 24.8 - - - - SE 39 46 21 25 1017.7 1017.6 -
19/07:00am 24.9 - - - - SE 39 46 21 25 1017.4 1017.3 -
19/06:30am 24.6 - - - - SE 39 48 21 26 1016.9 1016.8 -
19/06:00am 24.3 - - - - SE 39 46 21 25 1016.7 1016.6 -
19/05:30am 24.3 - - - - SE 39 44 21 24 1016.5 1016.4 -
19/05:00am 24.4 - - - - SE 41 46 22 25 1016.4 1016.3 -
19/04:30am 24.8 - - - - SE 39 44 21 24 1016.1 1016.0 -
19/04:00am 24.3 - - - - SE 41 46 22 25 1015.7 1015.6 -
19/03:30am 24.7 - - - - SE 41 48 22 26 1015.6 1015.5 -
19/03:00am 24.5 - - - - SE 35 43 19 23 1015.5 1015.4 -
19/02:30am 24.5 - - - - SE 37 46 20 25 1015.5 1015.4 -
19/02:00am 24.4 - - - - SE 37 44 20 24 1015.7 1015.6 -
19/01:30am 24.6 - - - - SE 37 44 20 24 1016.1 1016.0 -
19/01:00am 24.9 - - - - SE 37 44 20 24 1016.4 1016.3 -
19/12:30am 24.6 - - - - SE 35 43 19 23 1016.8 1016.7 -
19/12:00am 24.6 - - - - SE 37 43 20 23 1017.0 1016.9 -
 
Date/Time
EST
Temp
°C
App
Temp
°C
Dew
Point
Rel
Hum
%
Delta-T
°C
Wind Press
QNH
hPa
Press
MSL
hPa
Rain
since 9 am
mm
Dir
 
Spd
km/h
Gust
km/h
Spd
kts
Gust
kts
18/11:30pm 24.7 - - - - SE 39 46 21 25 1017.2 1017.1 -
18/11:00pm 24.8 - - - - SE 37 44 20 24 1017.6 1017.5 -
18/10:30pm 24.7 - - - - SE 37 43 20 23 1017.9 1017.8 -
18/10:00pm 24.6 - - - - SE 43 52 23 28 1018.0 1017.9 -

Other Formats:

Comma delimited format used in spreadsheet applications
http://www.bom.gov.au/fwo/IDQ60801/IDQ60801.94293.axf

JavaScript Object Notation format (JSON) in row-major order
http://www.bom.gov.au/fwo/IDQ60801/IDQ60801.94293.json